Freedom of the Seas — C6UZ7 — position and weather

sailwx.info

Track history (hours):
 
Tides and Currents Weather Stations Pressure Air Temp Water Temp Dewpoint Dewpoint Depression Visibility Wind Speed Wind Dir Waves Ship Positions

Freedom of the Seas

Last reported at 2019-Jun-16 14:30 UTC. Time now 2019-Jun-16 14:38 UTC.
Position N 18°28' W 066°06'.

Length 339 m; draft 9 m.

Type: Ship. MMSI: 309906000.

Date/timePositionNaut miles runAvg speedWind from/ knotsBaromVisibWave heightAir tempDewpointWater temp
2019-Jun-16 14:30N 18°28' W 066°06'0 0.0
2019-Jun-16 14:00N 18°28' W 066°06'0 0.0
2019-Jun-16 13:30N 18°28' W 066°06'0 0.0
2019-Jun-16 13:00N 18°28' W 066°06'0 0.0
2019-Jun-16 12:30N 18°28' W 066°06'0 0.0
2019-Jun-16 12:00N 18°28' W 066°06'0 0.0
2019-Jun-16 11:24N 18°28' W 066°06'0 0.0
2019-Jun-16 11:00N 18°28' W 066°06'0 0.0
2019-Jun-16 10:30N 18°28' W 066°06'0 0.0
2019-Jun-16 09:57N 18°28' W 066°06'0 0.5
2019-Jun-16 09:30N 18°28' W 066°06'1 2.4
2019-Jun-16 09:00N 18°28' W 066°07'510.5
2019-Jun-16 08:30N 18°33' W 066°05'1732.4
2019-Jun-16 08:00N 18°30' W 065°48'3 3.4 090 / 151017.2 27.224.528.0
2019-Jun-16 07:11N 18°33' W 065°47'314.2
2019-Jun-16 07:00N 18°32' W 065°45'714.5
2019-Jun-16 06:30N 18°32' W 065°37'714.5
2019-Jun-16 06:00N 18°30' W 065°30'714.6
2019-Jun-16 05:30N 18°28' W 065°22'714.4
2019-Jun-16 05:00N 18°25' W 065°15'714.5
2019-Jun-16 04:30N 18°20' W 065°10'713.7
2019-Jun-16 04:00N 18°15' W 065°05'713.5
2019-Jun-16 03:30N 18°11' W 064°59'713.4
2019-Jun-16 03:00N 18°08' W 064°53'713.3
2019-Jun-16 02:30N 18°04' W 064°47'27515.9
2019-Jun-15 09:16N 14°43' W 061°33'3 9.8
2019-Jun-15 09:00N 14°42' W 061°30'1123.6 070 / 211015.9 26.924.228.0
2019-Jun-15 08:31N 14°33' W 061°23'318.3
2019-Jun-15 08:21N 14°30' W 061°21'1318.5
2019-Jun-15 07:40N 14°22' W 061°12'318.8
2019-Jun-15 07:31N 14°20' W 061°10'918.2
2019-Jun-15 07:00N 14°15' W 061°01'917.7
2019-Jun-15 06:30N 14°12' W 060°53'1017.1
2019-Jun-15 05:57N 14°06' W 060°45'47 2.0
2019-Jun-14 07:00N 13°24' W 060°24'60 3.0 070 / 281015.5 27.323.828.0
2019-Jun-13 11:14N 14°07' W 061°06'510.7
2019-Jun-13 10:44N 14°11' W 061°10'311.2
2019-Jun-13 10:29N 14°13' W 061°12'1613.4
2019-Jun-13 09:15N 14°27' W 061°21'414.0
2019-Jun-13 09:00N 14°30' W 061°23'1113.6
2019-Jun-13 08:11N 14°41' W 061°27'  
2019-Jun-10 13:11N 18°01' W 063°03'0 0.0
2019-Jun-10 12:41N 18°01' W 063°03'0 0.0
2019-Jun-10 11:57N 18°01' W 063°03'2 2.7
2019-Jun-10 11:19N 18°00' W 063°05'1116.6
2019-Jun-10 10:39N 18°01' W 063°16'417.1
2019-Jun-10 10:25N 18°02' W 063°20'6619.4
2019-Jun-10 07:00N 18°06' W 064°30'1425.4 110 / 201017.2 27.923.928.0
2019-Jun-10 06:27N 18°11' W 064°43'716.4
2019-Jun-10 06:00N 18°12' W 064°51'816.2
2019-Jun-10 05:30N 18°13' W 064°59'815.6
2019-Jun-10 05:00N 18°16' W 065°07'815.3
2019-Jun-10 04:30N 18°22' W 065°12'815.7
2019-Jun-10 04:00N 18°28' W 065°18'815.2
2019-Jun-10 03:30N 18°32' W 065°25'917.6
2019-Jun-10 03:00N 18°34' W 065°34'918.6
2019-Jun-10 02:30N 18°36' W 065°43'1917.2
2019-Jun-10 01:24N 18°36' W 066°03'716.3
2019-Jun-10 01:00N 18°31' W 066°07'3 6.9
2019-Jun-10 00:30N 18°28' W 066°06'0 0.3
2019-Jun-09 23:59N 18°28' W 066°06'0 0.0
2019-Jun-09 22:38N 18°28' W 066°06'0 0.0
2019-Jun-09 22:14N 18°28' W 066°06'0 0.0
2019-Jun-09 21:50N 18°28' W 066°06'0 0.0
2019-Jun-09 21:26N 18°28' W 066°06'0 0.0
2019-Jun-09 20:38N 18°28' W 066°06'0 0.0
2019-Jun-09 20:26N 18°28' W 066°06'0 0.0
2019-Jun-09 19:56N 18°28' W 066°06'0 0.0
2019-Jun-09 19:26N 18°28' W 066°06'0 0.0
2019-Jun-09 18:50N 18°28' W 066°06'0 0.0
2019-Jun-09 17:53N 18°28' W 066°06'4 1.2
2019-Jun-09 15:00N 18°24' W 066°06'4 7.7 070 / 121019.0 29.023.2
2019-Jun-09 14:32N 18°28' W 066°06'0 0.0
2019-Jun-09 14:20N 18°28' W 066°06'0 0.0
2019-Jun-09 13:56N 18°28' W 066°06'0 0.0
2019-Jun-09 13:26N 18°28' W 066°06'0 0.0
2019-Jun-09 12:50N 18°28' W 066°06'0 0.0
2019-Jun-09 11:50N 18°28' W 066°06'0 0.0
2019-Jun-09 11:14N 18°28' W 066°06'0 0.0
2019-Jun-09 10:44N 18°28' W 066°06'0 0.0
2019-Jun-09 10:17N 18°28' W 066°06'0 0.0
2019-Jun-09 09:56N 18°28' W 066°06'0 0.6
2019-Jun-09 09:30N 18°28' W 066°06'2 3.4
2019-Jun-09 08:59N 18°29' W 066°08'510.0
2019-Jun-09 08:30N 18°33' W 066°05'1011.9
2019-Jun-09 07:38N 18°33' W 065°54'213.9
2019-Jun-09 07:30N 18°33' W 065°52'714.2
2019-Jun-09 07:00N 18°32' W 065°45'713.9
2019-Jun-09 06:30N 18°31' W 065°37'713.7
2019-Jun-09 06:00N 18°30' W 065°30'714.0
2019-Jun-09 05:30N 18°28' W 065°23'713.7
2019-Jun-09 05:00N 18°26' W 065°16'3216.4
2019-Jun-09 05:00N 18°24' W 065°18'1616.1 110 / 161017.1 27.224.528.0
2019-Jun-09 04:01N 18°15' W 065°04'917.2
2019-Jun-09 03:31N 18°12' W 064°56'917.4
2019-Jun-09 03:01N 18°11' W 064°46'8617.3
2019-Jun-08 22:01N 18°01' W 063°16'121.5
2019-Jun-08 21:58N 18°01' W 063°15'1016.2
2019-Jun-08 21:21N 18°00' W 063°05'2 0.6
2019-Jun-08 17:54N 18°01' W 063°03'0 0.0
2019-Jun-08 14:00N 18°01' W 063°03'0 0.0
2019-Jun-08 13:12N 18°01' W 063°03'0 0.3
2019-Jun-08 11:32N 18°00' W 063°03'0 4.7
2019-Jun-08 11:28N 18°00' W 063°03'6 9.1
2019-Jun-08 10:52N 17°58' W 063°09'610.2
2019-Jun-08 10:17N 17°56' W 063°14'310.2
2019-Jun-08 10:00N 17°55' W 063°17'13412.2
2019-Jun-07 23:00N 16°18' W 064°54'32012.3 100 / 161015.0 5.4 28.025.2
2019-Jun-06 21:00N 12°06' W 068°18'   080 / 231011.0 5.4 30.024.3
Track history (hours):
 
Tides and Currents Weather Stations Pressure Air Temp Water Temp Dewpoint Dewpoint Depression Visibility Wind Speed Wind Dir Waves Ship Positions

Freedom of the Seas

Last reported at 2019-Jun-16 14:30 UTC. Time now 2019-Jun-16 14:39 UTC.
Position N 18°28' W 066°06'.

Length 339 m; draft 9 m.

Type: Ship. MMSI: 309906000.

Date/timePositionNaut miles runAvg speedWind from/ knotsBaromVisibWave heightAir tempDewpointWater temp
2019-Jun-16 14:30N 18°28' W 066°06'0 0.0
2019-Jun-16 14:00N 18°28' W 066°06'0 0.0
2019-Jun-16 13:30N 18°28' W 066°06'0 0.0
2019-Jun-16 13:00N 18°28' W 066°06'0 0.0
2019-Jun-16 12:30N 18°28' W 066°06'0 0.0
2019-Jun-16 12:00N 18°28' W 066°06'0 0.0
2019-Jun-16 11:24N 18°28' W 066°06'0 0.0
2019-Jun-16 11:00N 18°28' W 066°06'0 0.0
2019-Jun-16 10:30N 18°28' W 066°06'0 0.0
2019-Jun-16 09:57N 18°28' W 066°06'0 0.5
2019-Jun-16 09:30N 18°28' W 066°06'1 2.4
2019-Jun-16 09:00N 18°28' W 066°07'510.5
2019-Jun-16 08:30N 18°33' W 066°05'1732.4
2019-Jun-16 08:00N 18°30' W 065°48'3 3.4 090 / 151017.2 27.224.528.0
2019-Jun-16 07:11N 18°33' W 065°47'314.2
2019-Jun-16 07:00N 18°32' W 065°45'714.5
2019-Jun-16 06:30N 18°32' W 065°37'714.5
2019-Jun-16 06:00N 18°30' W 065°30'714.6
2019-Jun-16 05:30N 18°28' W 065°22'714.4
2019-Jun-16 05:00N 18°25' W 065°15'714.5
2019-Jun-16 04:30N 18°20' W 065°10'713.7
2019-Jun-16 04:00N 18°15' W 065°05'713.5
2019-Jun-16 03:30N 18°11' W 064°59'713.4
2019-Jun-16 03:00N 18°08' W 064°53'713.3
2019-Jun-16 02:30N 18°04' W 064°47'27515.9
2019-Jun-15 09:16N 14°43' W 061°33'3 9.8
2019-Jun-15 09:00N 14°42' W 061°30'1123.6 070 / 211015.9 26.924.228.0
2019-Jun-15 08:31N 14°33' W 061°23'318.3
2019-Jun-15 08:21N 14°30' W 061°21'1318.5
2019-Jun-15 07:40N 14°22' W 061°12'318.8
2019-Jun-15 07:31N 14°20' W 061°10'918.2
2019-Jun-15 07:00N 14°15' W 061°01'917.7
2019-Jun-15 06:30N 14°12' W 060°53'1017.1
2019-Jun-15 05:57N 14°06' W 060°45'47 2.0
2019-Jun-14 07:00N 13°24' W 060°24'60 3.0 070 / 281015.5 27.323.828.0
2019-Jun-13 11:14N 14°07' W 061°06'510.7
2019-Jun-13 10:44N 14°11' W 061°10'311.2
2019-Jun-13 10:29N 14°13' W 061°12'1613.4
2019-Jun-13 09:15N 14°27' W 061°21'414.0
2019-Jun-13 09:00N 14°30' W 061°23'1113.6
2019-Jun-13 08:11N 14°41' W 061°27'  
2019-Jun-10 13:11N 18°01' W 063°03'0 0.0
2019-Jun-10 12:41N 18°01' W 063°03'0 0.0
2019-Jun-10 11:57N 18°01' W 063°03'2 2.7
2019-Jun-10 11:19N 18°00' W 063°05'1116.6
2019-Jun-10 10:39N 18°01' W 063°16'417.1
2019-Jun-10 10:25N 18°02' W 063°20'6619.4
2019-Jun-10 07:00N 18°06' W 064°30'1425.4 110 / 201017.2 27.923.928.0
2019-Jun-10 06:27N 18°11' W 064°43'716.4
2019-Jun-10 06:00N 18°12' W 064°51'816.2
2019-Jun-10 05:30N 18°13' W 064°59'815.6
2019-Jun-10 05:00N 18°16' W 065°07'815.3
2019-Jun-10 04:30N 18°22' W 065°12'815.7
2019-Jun-10 04:00N 18°28' W 065°18'815.2
2019-Jun-10 03:30N 18°32' W 065°25'917.6
2019-Jun-10 03:00N 18°34' W 065°34'918.6
2019-Jun-10 02:30N 18°36' W 065°43'1917.2
2019-Jun-10 01:24N 18°36' W 066°03'716.3
2019-Jun-10 01:00N 18°31' W 066°07'3 6.9
2019-Jun-10 00:30N 18°28' W 066°06'0 0.3
2019-Jun-09 23:59N 18°28' W 066°06'0 0.0
2019-Jun-09 22:38N 18°28' W 066°06'0 0.0
2019-Jun-09 22:14N 18°28' W 066°06'0 0.0
2019-Jun-09 21:50N 18°28' W 066°06'0 0.0
2019-Jun-09 21:26N 18°28' W 066°06'0 0.0
2019-Jun-09 20:38N 18°28' W 066°06'0 0.0
2019-Jun-09 20:26N 18°28' W 066°06'0 0.0
2019-Jun-09 19:56N 18°28' W 066°06'0 0.0
2019-Jun-09 19:26N 18°28' W 066°06'0 0.0
2019-Jun-09 18:50N 18°28' W 066°06'0 0.0
2019-Jun-09 17:53N 18°28' W 066°06'4 1.2
2019-Jun-09 15:00N 18°24' W 066°06'4 7.7 070 / 121019.0 29.023.2
2019-Jun-09 14:32N 18°28' W 066°06'0 0.0
2019-Jun-09 14:20N 18°28' W 066°06'0 0.0
2019-Jun-09 13:56N 18°28' W 066°06'0 0.0
2019-Jun-09 13:26N 18°28' W 066°06'0 0.0
2019-Jun-09 12:50N 18°28' W 066°06'0 0.0
2019-Jun-09 11:50N 18°28' W 066°06'0 0.0
2019-Jun-09 11:14N 18°28' W 066°06'0 0.0
2019-Jun-09 10:44N 18°28' W 066°06'0 0.0
2019-Jun-09 10:17N 18°28' W 066°06'0 0.0
2019-Jun-09 09:56N 18°28' W 066°06'0 0.6
2019-Jun-09 09:30N 18°28' W 066°06'2 3.4
2019-Jun-09 08:59N 18°29' W 066°08'510.0
2019-Jun-09 08:30N 18°33' W 066°05'1011.9
2019-Jun-09 07:38N 18°33' W 065°54'213.9
2019-Jun-09 07:30N 18°33' W 065°52'714.2
2019-Jun-09 07:00N 18°32' W 065°45'713.9
2019-Jun-09 06:30N 18°31' W 065°37'713.7
2019-Jun-09 06:00N 18°30' W 065°30'714.0
2019-Jun-09 05:30N 18°28' W 065°23'713.7
2019-Jun-09 05:00N 18°26' W 065°16'3216.4
2019-Jun-09 05:00N 18°24' W 065°18'1616.1 110 / 161017.1 27.224.528.0
2019-Jun-09 04:01N 18°15' W 065°04'917.2
2019-Jun-09 03:31N 18°12' W 064°56'917.4
2019-Jun-09 03:01N 18°11' W 064°46'8617.3
2019-Jun-08 22:01N 18°01' W 063°16'121.5
2019-Jun-08 21:58N 18°01' W 063°15'1016.2
2019-Jun-08 21:21N 18°00' W 063°05'2 0.6
2019-Jun-08 17:54N 18°01' W 063°03'0 0.0
2019-Jun-08 14:00N 18°01' W 063°03'0 0.0
2019-Jun-08 13:12N 18°01' W 063°03'0 0.3
2019-Jun-08 11:32N 18°00' W 063°03'0 4.7
2019-Jun-08 11:28N 18°00' W 063°03'6 9.1
2019-Jun-08 10:52N 17°58' W 063°09'610.2
2019-Jun-08 10:17N 17°56' W 063°14'310.2
2019-Jun-08 10:00N 17°55' W 063°17'13412.2
2019-Jun-07 23:00N 16°18' W 064°54'32012.3 100 / 161015.0 5.4 28.025.2
2019-Jun-06 21:00N 12°06' W 068°18'   080 / 231011.0 5.4 30.024.3

Dump ship's entire track history